createdAt,value
2019-04-22T00:02:11.890Z,100861.66
2019-04-22T00:04:30.196Z,100863.97
2019-04-22T00:06:51.722Z,100868.00
2019-04-22T00:09:02.259Z,100867.44
2019-04-22T00:11:21.239Z,100868.64
2019-04-22T00:13:26.539Z,100863.11
2019-04-22T00:15:29.463Z,100847.80
2019-04-22T00:20:00.446Z,100845.62
2019-04-22T00:22:08.040Z,100853.00
2019-04-22T00:24:12.221Z,100854.35
2019-04-22T00:26:23.963Z,100847.43
2019-04-22T00:28:41.542Z,100850.13
2019-04-22T00:30:40.627Z,100849.45
2019-04-22T00:33:03.452Z,100852.70
2019-04-22T00:35:15.202Z,100856.13
2019-04-22T00:37:25.038Z,100860.37
2019-04-22T00:41:42.837Z,100865.67
2019-04-22T00:43:56.769Z,100871.03
2019-04-22T00:46:01.125Z,100867.74
2019-04-22T00:48:16.022Z,100859.56
2019-04-22T00:50:26.764Z,100870.53
2019-04-22T00:52:34.681Z,100863.70
2019-04-22T00:54:51.260Z,100869.78
2019-04-22T00:56:50.843Z,100857.34
2019-04-22T00:58:59.101Z,100852.00
2019-04-22T01:01:14.374Z,100861.34
2019-04-22T01:03:27.453Z,100866.02
2019-04-22T01:05:34.404Z,100871.53
2019-04-22T01:07:44.565Z,100871.61
2019-04-22T01:09:58.630Z,100874.00
2019-04-22T01:11:59.119Z,100877.78
2019-04-22T01:14:09.229Z,100875.82
2019-04-22T01:16:24.989Z,100879.88
2019-04-22T01:18:27.938Z,100874.00
2019-04-22T01:21:02.195Z,100868.66
2019-04-22T01:22:46.242Z,100884.00
2019-04-22T01:24:57.855Z,100881.88
2019-04-22T01:27:03.208Z,100881.37
2019-04-22T01:29:12.667Z,100883.11
2019-04-22T01:31:12.362Z,100885.93
2019-04-22T01:33:28.115Z,100877.73
2019-04-22T01:35:41.198Z,100876.15
2019-04-22T01:37:54.177Z,100874.11
2019-04-22T01:40:14.774Z,100872.15
2019-04-22T01:42:18.802Z,100873.09
2019-04-22T01:44:33.395Z,100879.73
2019-04-22T01:46:47.630Z,100879.50
2019-04-22T01:48:47.287Z,100873.44
2019-04-22T01:50:54.778Z,100878.92
2019-04-22T01:53:27.364Z,100871.28
2019-04-22T01:57:22.937Z,100875.39
2019-04-22T01:59:28.638Z,100873.05
2019-04-22T02:01:53.492Z,100871.99
2019-04-22T02:03:57.443Z,100865.41
2019-04-22T02:06:06.934Z,100868.97
2019-04-22T02:08:27.673Z,100881.17
2019-04-22T02:10:30.136Z,100875.73
2019-04-22T02:12:35.469Z,100877.54
2019-04-22T02:16:55.870Z,100883.73
2019-04-22T02:19:08.963Z,100886.97
2019-04-22T02:21:09.338Z,100884.36
2019-04-22T02:23:45.174Z,100883.33
2019-04-22T02:25:40.986Z,100888.40
2019-04-22T02:27:46.008Z,100885.67
2019-04-22T02:29:54.075Z,100888.59
2019-04-22T02:32:19.628Z,100885.80
2019-04-22T02:36:30.074Z,100886.96
2019-04-22T02:38:51.326Z,100884.37
2019-04-22T02:41:10.196Z,100876.33
2019-04-22T02:43:02.711Z,100873.73
2019-04-22T02:45:26.650Z,100867.79
2019-04-22T02:49:37.861Z,100860.48
2019-04-22T02:56:05.516Z,100852.27
2019-04-22T02:58:05.646Z,100847.82
2019-04-22T03:00:21.592Z,100861.03
2019-04-22T03:02:28.484Z,100857.08
2019-04-22T03:04:37.480Z,100862.25
2019-04-22T03:11:16.833Z,100872.69
2019-04-22T03:13:21.387Z,100879.61
2019-04-22T03:15:11.637Z,100881.71
2019-04-22T03:17:36.764Z,100887.42
2019-04-22T03:21:46.929Z,100888.75
2019-04-22T03:24:18.026Z,100894.05
2019-04-22T03:26:27.372Z,100898.30
2019-04-22T03:28:18.812Z,100894.47
2019-04-22T03:30:47.559Z,100893.38
2019-04-22T03:33:05.472Z,100889.98
2019-04-22T03:35:20.024Z,100902.12
2019-04-22T03:39:28.249Z,100902.58
2019-04-22T03:41:27.233Z,100902.08
2019-04-22T03:43:33.787Z,100905.37
2019-04-22T03:45:30.220Z,100902.52
2019-04-22T03:47:53.736Z,100899.48
2019-04-22T03:50:17.628Z,100906.95
2019-04-22T03:54:29.841Z,100901.41
2019-04-22T03:57:04.947Z,100911.76
2019-04-22T03:58:28.850Z,100914.73
2019-04-22T04:00:55.882Z,100905.45
2019-04-22T04:02:59.565Z,100911.13
2019-04-22T04:05:29.644Z,100910.09
2019-04-22T04:11:39.017Z,100916.43
2019-04-22T04:13:41.979Z,100915.66
2019-04-22T04:15:38.370Z,100919.16
2019-04-22T04:20:10.901Z,100927.98
2019-04-22T04:22:35.886Z,100922.42
2019-04-22T04:24:48.037Z,100932.44
2019-04-22T04:31:19.553Z,100930.92
2019-04-22T04:33:11.233Z,100930.29
2019-04-22T04:35:23.893Z,100930.83
2019-04-22T04:37:42.413Z,100936.70
2019-04-22T04:39:40.518Z,100941.30
2019-04-22T04:41:52.084Z,100945.00
2019-04-22T04:44:11.163Z,100954.58
2019-04-22T04:46:06.110Z,100959.44
2019-04-22T04:48:14.453Z,100971.38
2019-04-22T04:55:03.941Z,100958.62
2019-04-22T04:56:46.628Z,100966.30
2019-04-22T04:59:08.151Z,100977.63
2019-04-22T05:03:21.217Z,100978.33
2019-04-22T05:09:47.371Z,100980.04
2019-04-22T05:12:01.858Z,100982.91
2019-04-22T05:14:05.415Z,100979.73
2019-04-22T05:16:25.100Z,100990.05
2019-04-22T05:18:20.763Z,100983.47
2019-04-22T05:22:43.096Z,100981.70
2019-04-22T05:24:51.860Z,100983.05
2019-04-22T05:27:10.869Z,100982.05
2019-04-22T05:29:09.648Z,100982.98
2019-04-22T05:31:27.615Z,100985.45
2019-04-22T05:33:32.174Z,100985.70
2019-04-22T05:35:33.296Z,100989.99
2019-04-22T05:37:54.689Z,100993.95
2019-04-22T05:40:04.466Z,100990.77
2019-04-22T05:44:14.686Z,101005.25
2019-04-22T05:46:22.525Z,101018.45
2019-04-22T05:48:34.183Z,101019.82
2019-04-22T05:50:37.345Z,101022.87
2019-04-22T05:52:56.003Z,101029.95
2019-04-22T05:55:08.281Z,101028.84
2019-04-22T05:57:17.953Z,101029.23
2019-04-22T05:59:24.433Z,101035.55
2019-04-22T06:01:45.110Z,101043.61
2019-04-22T06:03:50.899Z,101048.95
2019-04-22T06:06:00.802Z,101049.70
2019-04-22T06:08:08.265Z,101052.84
2019-04-22T06:10:21.325Z,101057.43
2019-04-22T06:12:23.387Z,101059.03
2019-04-22T06:14:31.101Z,101067.95
2019-04-22T06:16:50.250Z,101070.22
2019-04-22T06:19:02.818Z,101072.75
2019-04-22T06:21:11.548Z,101071.72
2019-04-22T06:23:30.699Z,101077.80
2019-04-22T06:25:57.830Z,101077.34
2019-04-22T06:27:41.633Z,101087.94
2019-04-22T06:29:51.321Z,101087.30
2019-04-22T06:32:17.864Z,101087.77
2019-04-22T06:34:11.901Z,101096.64
2019-04-22T06:36:38.288Z,101094.22
2019-04-22T06:38:35.902Z,101090.98
2019-04-22T06:40:39.142Z,101090.33
2019-04-22T06:42:53.390Z,101092.21
2019-04-22T06:44:57.930Z,101091.98
2019-04-22T06:47:10.535Z,101095.19
2019-04-22T06:49:18.859Z,101088.37
2019-04-22T06:51:30.982Z,101100.33
2019-04-22T06:53:34.643Z,101096.16
2019-04-22T06:55:45.826Z,101097.80
2019-04-22T06:57:51.101Z,101099.20
2019-04-22T07:00:05.285Z,101112.09
2019-04-22T07:02:18.055Z,101111.44
2019-04-22T07:04:22.257Z,101122.65
2019-04-22T07:06:40.110Z,101119.47
2019-04-22T07:10:50.453Z,101125.07
2019-04-22T07:13:01.231Z,101128.69
2019-04-22T07:15:24.387Z,101133.68
2019-04-22T07:17:22.147Z,101133.91
2019-04-22T07:19:33.629Z,101140.17
2019-04-22T07:21:57.581Z,101137.40
2019-04-22T07:24:03.040Z,101149.13
2019-04-22T07:25:58.462Z,101153.41
2019-04-22T07:28:11.183Z,101148.00
2019-04-22T07:30:22.031Z,101144.64
2019-04-22T07:32:54.919Z,101148.50
2019-04-22T07:34:40.751Z,101145.77
2019-04-22T07:36:59.002Z,101149.14
2019-04-22T07:38:57.240Z,101150.86
2019-04-22T07:41:05.848Z,101149.53
2019-04-22T07:45:29.572Z,101157.70
2019-04-22T07:47:38.074Z,101159.30
2019-04-22T07:51:58.796Z,101164.64
2019-04-22T07:54:06.501Z,101164.61
2019-04-22T07:56:18.421Z,101171.28
2019-04-22T07:58:26.106Z,101173.73
2019-04-22T08:00:38.683Z,101171.09
2019-04-22T08:07:10.726Z,101179.14
2019-04-22T08:09:20.313Z,101186.61
2019-04-22T08:11:37.650Z,101193.70
2019-04-22T08:15:48.533Z,101186.33
2019-04-22T08:20:05.549Z,101189.06
2019-04-22T08:22:11.861Z,101193.80
2019-04-22T08:24:23.886Z,101188.60
2019-04-22T08:26:36.636Z,101187.43
2019-04-22T08:28:50.143Z,101190.03
2019-04-22T08:30:55.079Z,101184.13
2019-04-22T08:33:04.077Z,101184.72
2019-04-22T08:35:18.720Z,101185.69
2019-04-22T08:39:31.158Z,101186.48
2019-04-22T08:41:37.547Z,101186.89
2019-04-22T08:43:57.335Z,101191.62
2019-04-22T08:46:06.182Z,101202.40
2019-04-22T08:48:21.074Z,101189.48
2019-04-22T08:50:25.512Z,101200.52
2019-04-22T08:52:38.636Z,101205.68
2019-04-22T08:54:44.930Z,101202.49
2019-04-22T08:56:50.690Z,101198.20
2019-04-22T09:01:11.229Z,101192.65
2019-04-22T09:03:16.002Z,101189.30
2019-04-22T09:05:52.176Z,101197.08
2019-04-22T09:07:48.568Z,101186.78
2019-04-22T09:09:54.081Z,101193.31
2019-04-22T09:12:04.357Z,101184.58
2019-04-22T09:14:11.626Z,101182.33
2019-04-22T09:16:21.906Z,101188.86
2019-04-22T09:18:32.936Z,101188.30
2019-04-22T09:20:41.820Z,101193.13
2019-04-22T09:22:48.430Z,101186.12
2019-04-22T09:24:51.774Z,101201.07
2019-04-22T09:27:11.263Z,101203.75
2019-04-22T09:29:20.939Z,101201.72
2019-04-22T09:31:24.016Z,101203.45
2019-04-22T09:33:36.895Z,101205.77
2019-04-22T09:42:10.751Z,101205.91
2019-04-22T09:44:21.841Z,101207.41
2019-04-22T09:46:39.602Z,101197.00
2019-04-22T09:48:43.893Z,101197.72
2019-04-22T09:50:57.327Z,101201.83
2019-04-22T09:53:02.119Z,101201.19
2019-04-22T09:55:12.516Z,101197.05
2019-04-22T09:57:21.686Z,101200.88
2019-04-22T09:59:35.295Z,101208.55
2019-04-22T10:01:50.417Z,101217.18
2019-04-22T10:03:56.292Z,101209.41
2019-04-22T10:06:13.271Z,101201.72
2019-04-22T10:08:18.557Z,101200.87
2019-04-22T10:16:50.762Z,101201.61
2019-04-22T10:21:19.131Z,101211.55
2019-04-22T10:23:20.227Z,101210.28
2019-04-22T10:25:32.720Z,101215.75
2019-04-22T10:27:39.803Z,101206.49
2019-04-22T10:29:53.693Z,101215.10
2019-04-22T10:31:55.807Z,101214.23
2019-04-22T10:33:58.475Z,101212.39
2019-04-22T10:35:51.862Z,101213.61
2019-04-22T10:38:00.676Z,101223.77
2019-04-22T10:40:15.819Z,101220.67
2019-04-22T10:42:25.221Z,101223.26
2019-04-22T10:44:35.258Z,101222.86
2019-04-22T10:46:44.354Z,101219.59
2019-04-22T10:48:52.756Z,101219.99
2019-04-22T10:51:01.032Z,101223.82
2019-04-22T10:53:09.123Z,101215.67
2019-04-22T10:55:17.376Z,101216.23
2019-04-22T10:57:25.639Z,101226.72
2019-04-22T10:59:34.389Z,101222.30
2019-04-22T11:01:42.423Z,101222.73
2019-04-22T11:03:51.124Z,101228.09
2019-04-22T11:05:59.406Z,101218.09
2019-04-22T11:08:08.500Z,101225.99
2019-04-22T11:10:34.666Z,101218.88
2019-04-22T11:12:30.810Z,101221.25
2019-04-22T11:14:40.159Z,101231.06
2019-04-22T11:16:47.694Z,101228.04
2019-04-22T11:18:55.882Z,101225.57
2019-04-22T11:21:05.283Z,101232.98
2019-04-22T11:23:14.386Z,101234.03
2019-04-22T11:25:23.610Z,101236.61
2019-04-22T11:27:32.926Z,101239.80
2019-04-22T11:29:41.541Z,101243.83
2019-04-22T11:31:50.442Z,101234.88
2019-04-22T11:33:58.623Z,101248.94
2019-04-22T11:36:07.957Z,101252.53
2019-04-22T11:38:17.288Z,101244.92
2019-04-22T11:40:34.831Z,101253.30
2019-04-22T11:42:36.317Z,101244.63
2019-04-22T11:44:45.407Z,101247.41
2019-04-22T11:46:53.694Z,101252.16
2019-04-22T11:49:01.724Z,101252.72
2019-04-22T11:51:09.775Z,101254.50
2019-04-22T11:53:18.657Z,101252.14
2019-04-22T11:55:26.933Z,101256.19
2019-04-22T11:57:35.031Z,101253.66
2019-04-22T11:59:43.072Z,101238.42
2019-04-22T12:01:52.812Z,101246.31
2019-04-22T12:04:02.170Z,101245.76
2019-04-22T12:06:10.390Z,101248.55
2019-04-22T12:08:18.743Z,101244.95
2019-04-22T12:10:34.684Z,101245.95
2019-04-22T12:12:36.999Z,101249.42
2019-04-22T12:14:45.879Z,101245.96
2019-04-22T12:16:55.195Z,101251.39
2019-04-22T12:19:03.209Z,101247.94
2019-04-22T12:21:11.028Z,101263.47
2019-04-22T12:23:18.989Z,101251.12
2019-04-22T12:25:34.842Z,101248.84
2019-04-22T12:27:38.888Z,101253.29
2019-04-22T12:29:47.182Z,101245.73
2019-04-22T12:31:55.614Z,101251.48
2019-04-22T12:34:05.986Z,101253.70
2019-04-22T12:36:14.951Z,101256.69
2019-04-22T12:38:24.092Z,101250.15
2019-04-22T12:40:40.790Z,101254.35
2019-04-22T12:42:42.150Z,101248.03
2019-04-22T12:44:51.182Z,101243.68
2019-04-22T12:47:00.733Z,101233.30
2019-04-22T12:49:09.906Z,101239.41
2019-04-22T12:51:18.881Z,101247.37
2019-04-22T12:53:28.040Z,101253.84
2019-04-22T12:55:37.474Z,101253.00
2019-04-22T12:57:46.452Z,101238.61
2019-04-22T12:59:55.428Z,101238.34
2019-04-22T13:02:03.246Z,101243.77
2019-04-22T13:04:15.304Z,101231.67
2019-04-22T13:06:21.734Z,101230.23
2019-04-22T13:08:29.859Z,101228.30
2019-04-22T13:10:45.627Z,101227.36
2019-04-22T13:12:47.219Z,101217.06
2019-04-22T13:14:55.111Z,101223.46
2019-04-22T13:17:04.024Z,101234.73
2019-04-22T13:19:14.958Z,101225.73
2019-04-22T13:21:22.761Z,101222.77
2019-04-22T13:23:31.769Z,101235.55
2019-04-22T13:25:40.903Z,101232.58
2019-04-22T13:27:49.169Z,101225.45
2019-04-22T13:29:57.407Z,101230.13
2019-04-22T13:32:06.850Z,101226.42
2019-04-22T13:34:21.630Z,101225.95
2019-04-22T13:36:27.650Z,101227.28
2019-04-22T13:38:35.376Z,101224.64
2019-04-22T13:40:57.880Z,101226.53
2019-04-22T13:42:53.521Z,101225.97
2019-04-22T13:45:01.973Z,101223.12
2019-04-22T13:47:27.940Z,101212.71
2019-04-22T13:49:49.415Z,101217.42
2019-04-22T13:52:02.371Z,101213.72
2019-04-22T13:54:36.855Z,101213.31
2019-04-22T13:56:26.310Z,101214.30
2019-04-22T13:58:14.599Z,101214.68
2019-04-22T14:00:13.802Z,101213.29
2019-04-22T14:02:32.731Z,101223.72
2019-04-22T14:04:42.935Z,101218.80
2019-04-22T14:06:52.535Z,101218.65
2019-04-22T14:09:01.219Z,101218.91
2019-04-22T14:11:16.805Z,101220.97
2019-04-22T14:13:21.670Z,101227.81
2019-04-22T14:15:31.975Z,101221.73
2019-04-22T14:17:41.027Z,101219.27
2019-04-22T14:19:48.903Z,101227.36
2019-04-22T14:21:57.800Z,101226.11
2019-04-22T14:24:07.360Z,101219.77
2019-04-22T14:26:15.479Z,101227.36
2019-04-22T14:28:25.136Z,101221.31
2019-04-22T14:30:34.572Z,101226.78
2019-04-22T14:32:43.989Z,101215.47
2019-04-22T14:34:53.201Z,101214.14
2019-04-22T14:37:01.494Z,101209.52
2019-04-22T14:39:12.198Z,101213.30
2019-04-22T14:41:35.831Z,101216.53
2019-04-22T14:44:24.523Z,101222.03
2019-04-22T14:46:08.067Z,101222.70
2019-04-22T14:48:11.012Z,101216.81
2019-04-22T14:50:17.861Z,101218.62
2019-04-22T14:52:33.174Z,101218.62
2019-04-22T14:54:34.577Z,101214.97
2019-04-22T14:56:28.680Z,101215.02
2019-04-22T14:58:37.398Z,101219.02
2019-04-22T15:00:45.937Z,101222.88
2019-04-22T15:02:55.463Z,101228.75
2019-04-22T15:05:03.821Z,101233.41
2019-04-22T15:07:12.758Z,101230.59
2019-04-22T15:09:21.845Z,101231.72
2019-04-22T15:11:41.809Z,101230.52
2019-04-22T15:13:39.196Z,101233.66
2019-04-22T15:16:03.015Z,101234.38
2019-04-22T15:18:33.468Z,101228.84
2019-04-22T15:20:54.301Z,101239.00
2019-04-22T15:23:02.462Z,101230.05
2019-04-22T15:25:10.619Z,101228.24
2019-04-22T15:27:31.123Z,101235.26
2019-04-22T15:29:39.251Z,101231.00
2019-04-22T15:31:47.481Z,101227.94
2019-04-22T15:33:56.424Z,101226.06
2019-04-22T15:36:05.719Z,101237.69
2019-04-22T15:38:15.416Z,101235.62
2019-04-22T15:40:24.734Z,101237.91
2019-04-22T15:42:37.732Z,101234.02
2019-04-22T15:44:44.189Z,101227.14
2019-04-22T15:46:53.193Z,101231.27
2019-04-22T15:49:02.150Z,101227.74
2019-04-22T15:51:10.949Z,101234.69
2019-04-22T15:53:20.047Z,101239.73
2019-04-22T15:55:29.119Z,101245.50
2019-04-22T15:57:39.450Z,101253.13
2019-04-22T16:00:02.308Z,101249.70
2019-04-22T16:02:00.124Z,101253.22
2019-04-22T16:04:06.430Z,101250.25
2019-04-22T16:06:15.665Z,101248.23
2019-04-22T16:08:24.698Z,101254.39
2019-04-22T16:10:33.796Z,101262.11
2019-04-22T16:12:53.046Z,101256.70
2019-04-22T16:14:56.495Z,101253.55
2019-04-22T16:17:01.264Z,101261.09
2019-04-22T16:19:09.657Z,101264.25
2019-04-22T16:21:30.180Z,101268.30
2019-04-22T16:23:56.545Z,101266.05
2019-04-22T16:26:42.510Z,101264.27
2019-04-22T16:28:53.737Z,101259.30
2019-04-22T16:31:01.450Z,101267.39
2019-04-22T16:33:10.406Z,101264.27
2019-04-22T16:35:18.785Z,101267.61
2019-04-22T16:37:26.790Z,101270.19
2019-04-22T16:39:36.451Z,101268.78
2019-04-22T16:41:46.575Z,101264.88
2019-04-22T16:43:56.231Z,101269.78
2019-04-22T16:46:05.637Z,101274.77
2019-04-22T16:48:13.769Z,101273.16
2019-04-22T16:50:23.031Z,101277.80
2019-04-22T16:52:32.190Z,101277.39
2019-04-22T16:54:48.510Z,101276.44
2019-04-22T16:56:57.559Z,101272.91
2019-04-22T16:59:06.667Z,101277.81
2019-04-22T17:01:36.722Z,101280.54
2019-04-22T17:04:04.866Z,101279.39
2019-04-22T17:06:32.259Z,101278.73
2019-04-22T17:08:40.443Z,101281.39
2019-04-22T17:10:49.479Z,101274.98
2019-04-22T17:13:03.501Z,101274.72
2019-04-22T17:15:12.331Z,101274.64
2019-04-22T17:17:20.239Z,101278.66
2019-04-22T17:19:29.194Z,101283.98
2019-04-22T17:21:37.575Z,101282.73
2019-04-22T17:23:45.787Z,101284.61
2019-04-22T17:25:54.432Z,101288.77
2019-04-22T17:28:03.560Z,101284.64
2019-04-22T17:30:12.470Z,101285.11
2019-04-22T17:32:23.049Z,101282.28
2019-04-22T17:34:31.814Z,101281.23
2019-04-22T17:36:40.531Z,101280.38
2019-04-22T17:38:59.956Z,101272.49
2019-04-22T17:41:11.651Z,101276.09
2019-04-22T17:43:36.152Z,101278.09
2019-04-22T17:45:55.865Z,101271.40
2019-04-22T17:48:38.246Z,101286.41
2019-04-22T17:50:44.435Z,101285.39
2019-04-22T17:53:03.592Z,101285.64
2019-04-22T17:55:02.707Z,101285.88
2019-04-22T17:57:09.979Z,101294.20
2019-04-22T17:59:23.346Z,101286.56
2019-04-22T18:01:32.617Z,101296.38
2019-04-22T18:03:32.500Z,101298.09
2019-04-22T18:05:43.793Z,101305.56
2019-04-22T18:08:09.698Z,101300.81
2019-04-22T18:10:27.543Z,101307.98
2019-04-22T18:12:36.206Z,101307.44
2019-04-22T18:14:44.857Z,101307.06
2019-04-22T18:16:43.006Z,101312.03
2019-04-22T18:18:52.891Z,101310.47
2019-04-22T18:20:57.454Z,101310.09
2019-04-22T18:23:03.631Z,101318.83
2019-04-22T18:25:14.886Z,101321.64
2019-04-22T18:27:47.270Z,101318.41
2019-04-22T18:29:43.418Z,101315.93
2019-04-22T18:31:44.159Z,101315.86
2019-04-22T18:33:59.449Z,101321.53
2019-04-22T18:36:09.973Z,101325.13
2019-04-22T18:38:32.999Z,101325.73
2019-04-22T18:40:30.819Z,101327.11
2019-04-22T18:42:45.776Z,101324.57
2019-04-22T18:44:55.556Z,101330.79
2019-04-22T18:47:01.200Z,101331.87
2019-04-22T18:49:11.048Z,101333.89
2019-04-22T18:51:35.232Z,101332.55
2019-04-22T18:54:00.160Z,101336.21
2019-04-22T18:56:19.160Z,101331.83
2019-04-22T18:58:21.463Z,101328.47
2019-04-22T19:00:21.298Z,101334.94
2019-04-22T19:02:33.162Z,101344.61
2019-04-22T19:04:53.068Z,101338.24
2019-04-22T19:07:07.458Z,101347.31
2019-04-22T19:09:27.341Z,101343.31
2019-04-22T19:11:30.154Z,101347.59
2019-04-22T19:13:56.037Z,101341.69
2019-04-22T19:16:25.591Z,101345.22
2019-04-22T19:20:47.857Z,101346.82
2019-04-22T19:22:55.256Z,101347.03
2019-04-22T19:24:54.745Z,101344.30
2019-04-22T19:27:20.113Z,101348.36
2019-04-22T19:29:18.639Z,101345.23
2019-04-22T19:31:40.754Z,101349.95
2019-04-22T19:33:34.556Z,101347.22
2019-04-22T19:35:40.218Z,101353.36
2019-04-22T19:37:51.944Z,101354.53
2019-04-22T19:42:25.121Z,101345.75
2019-04-22T19:44:26.266Z,101350.72
2019-04-22T19:46:35.433Z,101356.54
2019-04-22T19:48:45.715Z,101351.67
2019-04-22T19:51:06.966Z,101348.81
2019-04-22T19:53:03.529Z,101355.37
2019-04-22T19:55:14.090Z,101347.02
2019-04-22T19:57:24.930Z,101352.20
2019-04-22T19:59:32.744Z,101350.23
2019-04-22T20:02:00.684Z,101352.52
2019-04-22T20:04:41.303Z,101352.45
2019-04-22T20:06:47.872Z,101358.95
2019-04-22T20:08:59.312Z,101357.24
2019-04-22T20:11:12.880Z,101361.84
2019-04-22T20:13:25.212Z,101356.70
2019-04-22T20:15:22.636Z,101361.59
2019-04-22T20:17:56.489Z,101365.48
2019-04-22T20:19:50.149Z,101364.15
2019-04-22T20:21:59.656Z,101364.89
2019-04-22T20:23:55.926Z,101372.69
2019-04-22T20:26:07.563Z,101369.16
2019-04-22T20:28:29.094Z,101369.77
2019-04-22T20:30:39.933Z,101374.86
2019-04-22T20:32:44.617Z,101374.31
2019-04-22T20:34:57.529Z,101377.56
2019-04-22T20:37:10.467Z,101381.53
2019-04-22T20:39:10.884Z,101383.90
2019-04-22T20:41:22.807Z,101374.65
2019-04-22T20:43:43.140Z,101377.02
2019-04-22T20:45:46.645Z,101383.67
2019-04-22T20:47:45.440Z,101387.97
2019-04-22T20:50:05.509Z,101385.05
2019-04-22T20:52:19.246Z,101383.13
2019-04-22T20:54:22.917Z,101384.86
2019-04-22T20:56:29.978Z,101381.84
2019-04-22T20:58:47.965Z,101383.45
2019-04-22T21:00:46.425Z,101386.05
2019-04-22T21:02:51.308Z,101384.25
2019-04-22T21:04:59.076Z,101377.89
2019-04-22T21:07:16.853Z,101388.64
2019-04-22T21:09:27.298Z,101380.77
2019-04-22T21:11:38.564Z,101383.78
2019-04-22T21:13:51.326Z,101379.02
2019-04-22T21:16:04.524Z,101383.36
2019-04-22T21:18:05.565Z,101380.70
2019-04-22T21:20:28.977Z,101381.70
2019-04-22T21:22:33.911Z,101375.81
2019-04-22T21:24:34.745Z,101383.86
2019-04-22T21:26:44.061Z,101388.48
2019-04-22T21:28:56.741Z,101379.63
2019-04-22T21:31:17.161Z,101388.67
2019-04-22T21:33:16.291Z,101382.98
2019-04-22T21:35:47.517Z,101385.00
2019-04-22T21:37:43.060Z,101389.65
2019-04-22T21:39:42.099Z,101388.84
2019-04-22T21:41:56.987Z,101390.86
2019-04-22T21:44:12.812Z,101389.11
2019-04-22T21:46:20.770Z,101393.50
2019-04-22T21:48:37.172Z,101389.49
2019-04-22T21:52:54.775Z,101384.72
2019-04-22T21:55:08.692Z,101387.23
2019-04-22T21:57:24.173Z,101388.38
2019-04-22T21:59:30.693Z,101382.69
2019-04-22T22:04:04.765Z,101377.38
2019-04-22T22:06:02.967Z,101383.55
2019-04-22T22:08:27.324Z,101380.53
2019-04-22T22:10:34.487Z,101379.81
2019-04-22T22:12:40.790Z,101374.75
2019-04-22T22:14:51.332Z,101378.20
2019-04-22T22:16:53.399Z,101376.54
2019-04-22T22:19:11.719Z,101377.69
2019-04-22T22:21:34.917Z,101381.94
2019-04-22T22:23:34.526Z,101380.16
2019-04-22T22:25:33.706Z,101372.63
2019-04-22T22:27:44.374Z,101372.41
2019-04-22T22:30:29.390Z,101372.50
2019-04-22T22:32:13.278Z,101381.52
2019-04-22T22:34:19.091Z,101376.75
2019-04-22T22:36:20.727Z,101371.02
2019-04-22T22:38:31.194Z,101377.27
2019-04-22T22:40:27.653Z,101373.73
2019-04-22T22:42:38.680Z,101371.09
2019-04-22T22:44:46.759Z,101366.33
2019-04-22T22:47:08.598Z,101369.34
2019-04-22T22:49:23.397Z,101370.52
2019-04-22T22:51:39.605Z,101370.13
2019-04-22T22:53:46.402Z,101367.17
2019-04-22T22:55:46.381Z,101376.19
2019-04-22T22:58:01.331Z,101373.33
2019-04-22T23:00:09.709Z,101365.12
2019-04-22T23:02:15.682Z,101376.23
2019-04-22T23:06:38.280Z,101371.28
2019-04-22T23:08:51.870Z,101364.34
2019-04-22T23:11:00.945Z,101361.20
2019-04-22T23:13:06.882Z,101364.05
2019-04-22T23:15:12.034Z,101364.86
2019-04-22T23:17:10.013Z,101353.00
2019-04-22T23:19:13.586Z,101355.76
2019-04-22T23:21:29.305Z,101345.61
2019-04-22T23:23:53.010Z,101357.32
2019-04-22T23:26:02.568Z,101357.36
2019-04-22T23:28:26.595Z,101349.62
2019-04-22T23:30:44.590Z,101346.23
2019-04-22T23:33:05.810Z,101357.66
2019-04-22T23:35:22.669Z,101351.67
2019-04-22T23:37:39.398Z,101354.38
2019-04-22T23:39:56.548Z,101347.80
2019-04-22T23:42:20.885Z,101352.52
2019-04-22T23:44:14.326Z,101357.72
2019-04-22T23:46:19.004Z,101347.29
2019-04-22T23:48:24.579Z,101343.80
2019-04-22T23:50:37.566Z,101345.58
2019-04-22T23:52:53.318Z,101345.27
2019-04-22T23:55:06.571Z,101343.91
2019-04-22T23:57:08.817Z,101335.86
2019-04-22T23:59:37.942Z,101342.99
